sensor_id;sensor_type;location;lat;lon;timestamp;temperature;humidity
18207;DHT22;9229;52.354;20.886;2024-03-07T00:03:28;2.70;99.90
18207;DHT22;9229;52.354;20.886;2024-03-07T00:08:32;2.60;99.90
18207;DHT22;9229;52.354;20.886;2024-03-07T00:13:35;2.40;99.90
18207;DHT22;9229;52.354;20.886;2024-03-07T00:18:38;2.30;99.90
18207;DHT22;9229;52.354;20.886;2024-03-07T00:23:42;2.10;99.90
18207;DHT22;9229;52.354;20.886;2024-03-07T00:28:45;1.90;99.90
18207;DHT22;9229;52.354;20.886;2024-03-07T00:33:48;1.80;99.90
18207;DHT22;9229;52.354;20.886;2024-03-07T00:38:52;1.80;99.90
18207;DHT22;9229;52.354;20.886;2024-03-07T00:43:54;1.50;99.90
18207;DHT22;9229;52.354;20.886;2024-03-07T00:48:58;1.50;99.90
18207;DHT22;9229;52.354;20.886;2024-03-07T00:54:02;1.40;99.90
18207;DHT22;9229;52.354;20.886;2024-03-07T00:59:04;1.20;99.90
18207;DHT22;9229;52.354;20.886;2024-03-07T01:04:07;1.90;99.90
18207;DHT22;9229;52.354;20.886;2024-03-07T01:09:11;1.00;99.90
18207;DHT22;9229;52.354;20.886;2024-03-07T01:14:17;0.80;99.90
18207;DHT22;9229;52.354;20.886;2024-03-07T01:19:19;0.70;99.90
18207;DHT22;9229;52.354;20.886;2024-03-07T01:24:23;0.60;99.90
18207;DHT22;9229;52.354;20.886;2024-03-07T01:29:26;0.50;99.90
18207;DHT22;9229;52.354;20.886;2024-03-07T01:34:28;0.50;99.90
18207;DHT22;9229;52.354;20.886;2024-03-07T01:39:32;0.30;99.90
18207;DHT22;9229;52.354;20.886;2024-03-07T01:44:34;0.40;99.90
18207;DHT22;9229;52.354;20.886;2024-03-07T01:49:37;0.10;99.90
18207;DHT22;9229;52.354;20.886;2024-03-07T01:54:41;0.10;99.90
18207;DHT22;9229;52.354;20.886;2024-03-07T01:59:45;0.00;99.90
18207;DHT22;9229;52.354;20.886;2024-03-07T02:04:47;0.00;99.90
18207;DHT22;9229;52.354;20.886;2024-03-07T02:09:59;-0.10;99.90
18207;DHT22;9229;52.354;20.886;2024-03-07T02:15:01;-0.20;99.90
18207;DHT22;9229;52.354;20.886;2024-03-07T02:20:05;-0.20;99.90
18207;DHT22;9229;52.354;20.886;2024-03-07T02:25:11;-0.30;99.90
18207;DHT22;9229;52.354;20.886;2024-03-07T02:30:14;-0.30;99.90
18207;DHT22;9229;52.354;20.886;2024-03-07T02:35:17;-0.40;99.90
18207;DHT22;9229;52.354;20.886;2024-03-07T02:40:21;-0.40;99.90
18207;DHT22;9229;52.354;20.886;2024-03-07T02:45:23;-0.40;99.90
18207;DHT22;9229;52.354;20.886;2024-03-07T02:50:26;-0.50;99.90
18207;DHT22;9229;52.354;20.886;2024-03-07T02:55:31;-0.50;99.90
18207;DHT22;9229;52.354;20.886;2024-03-07T03:00:33;-0.60;99.90
18207;DHT22;9229;52.354;20.886;2024-03-07T03:05:35;-0.70;99.90
18207;DHT22;9229;52.354;20.886;2024-03-07T03:10:39;-0.70;99.90
18207;DHT22;9229;52.354;20.886;2024-03-07T03:15:41;-0.80;99.90
18207;DHT22;9229;52.354;20.886;2024-03-07T03:20:44;-0.80;99.90
18207;DHT22;9229;52.354;20.886;2024-03-07T03:25:50;-0.90;99.90
18207;DHT22;9229;52.354;20.886;2024-03-07T03:30:52;-0.90;99.90
18207;DHT22;9229;52.354;20.886;2024-03-07T03:35:54;-0.90;99.90
18207;DHT22;9229;52.354;20.886;2024-03-07T03:40:58;-0.90;99.90
18207;DHT22;9229;52.354;20.886;2024-03-07T03:46:00;-0.90;99.90
18207;DHT22;9229;52.354;20.886;2024-03-07T03:51:06;-1.00;99.90
18207;DHT22;9229;52.354;20.886;2024-03-07T03:56:11;-1.00;99.90
18207;DHT22;9229;52.354;20.886;2024-03-07T04:01:13;-1.00;99.90
18207;DHT22;9229;52.354;20.886;2024-03-07T04:06:17;-1.10;99.90
18207;DHT22;9229;52.354;20.886;2024-03-07T04:11:21;-1.10;99.90
18207;DHT22;9229;52.354;20.886;2024-03-07T04:16:24;-1.10;99.90
18207;DHT22;9229;52.354;20.886;2024-03-07T04:21:26;-1.10;99.90
18207;DHT22;9229;52.354;20.886;2024-03-07T04:26:30;-1.10;99.90
18207;DHT22;9229;52.354;20.886;2024-03-07T04:31:32;-1.10;99.90
18207;DHT22;9229;52.354;20.886;2024-03-07T04:36:35;-1.20;99.90
18207;DHT22;9229;52.354;20.886;2024-03-07T04:41:39;-1.20;99.90
18207;DHT22;9229;52.354;20.886;2024-03-07T04:46:41;-1.20;99.90
18207;DHT22;9229;52.354;20.886;2024-03-07T04:51:45;-1.20;99.90
18207;DHT22;9229;52.354;20.886;2024-03-07T04:56:50;-1.30;99.90
18207;DHT22;9229;52.354;20.886;2024-03-07T05:01:53;-1.30;99.90
18207;DHT22;9229;52.354;20.886;2024-03-07T05:06:55;-1.30;99.90
18207;DHT22;9229;52.354;20.886;2024-03-07T05:11:59;-1.30;99.90
18207;DHT22;9229;52.354;20.886;2024-03-07T05:17:02;-1.30;99.90
18207;DHT22;9229;52.354;20.886;2024-03-07T05:22:06;-1.40;99.90
18207;DHT22;9229;52.354;20.886;2024-03-07T05:27:10;-1.40;99.90
18207;DHT22;9229;52.354;20.886;2024-03-07T05:32:23;-1.40;99.90
18207;DHT22;9229;52.354;20.886;2024-03-07T05:37:26;-1.30;99.90
18207;DHT22;9229;52.354;20.886;2024-03-07T05:42:30;-1.30;99.90
18207;DHT22;9229;52.354;20.886;2024-03-07T05:47:32;-1.30;99.90
18207;DHT22;9229;52.354;20.886;2024-03-07T05:52:36;-1.20;99.90
18207;DHT22;9229;52.354;20.886;2024-03-07T05:57:40;-1.20;99.90
18207;DHT22;9229;52.354;20.886;2024-03-07T06:02:44;-1.20;99.90
18207;DHT22;9229;52.354;20.886;2024-03-07T06:07:50;-0.90;99.90
18207;DHT22;9229;52.354;20.886;2024-03-07T06:12:55;-0.80;99.90
18207;DHT22;9229;52.354;20.886;2024-03-07T06:17:58;-1.00;99.90
18207;DHT22;9229;52.354;20.886;2024-03-07T06:23:00;-0.90;99.90
18207;DHT22;9229;52.354;20.886;2024-03-07T06:28:10;-0.80;99.90
18207;DHT22;9229;52.354;20.886;2024-03-07T06:33:13;-0.70;99.90
18207;DHT22;9229;52.354;20.886;2024-03-07T06:38:17;-0.60;99.90
18207;DHT22;9229;52.354;20.886;2024-03-07T06:43:22;-0.40;99.90
18207;DHT22;9229;52.354;20.886;2024-03-07T06:48:26;-0.40;99.90
18207;DHT22;9229;52.354;20.886;2024-03-07T06:53:31;-0.20;99.90
18207;DHT22;9229;52.354;20.886;2024-03-07T06:58:34;-0.10;99.90
18207;DHT22;9229;52.354;20.886;2024-03-07T07:03:37;0.00;99.90
18207;DHT22;9229;52.354;20.886;2024-03-07T07:08:39;0.20;99.90
18207;DHT22;9229;52.354;20.886;2024-03-07T07:13:42;0.30;99.90
18207;DHT22;9229;52.354;20.886;2024-03-07T07:18:47;0.50;99.90
18207;DHT22;9229;52.354;20.886;2024-03-07T07:23:49;0.60;99.90
18207;DHT22;9229;52.354;20.886;2024-03-07T07:28:53;0.70;99.90
18207;DHT22;9229;52.354;20.886;2024-03-07T07:33:56;0.90;99.90
18207;DHT22;9229;52.354;20.886;2024-03-07T07:39:00;1.10;99.90
18207;DHT22;9229;52.354;20.886;2024-03-07T07:44:05;1.20;99.90
18207;DHT22;9229;52.354;20.886;2024-03-07T07:49:12;1.30;99.90
18207;DHT22;9229;52.354;20.886;2024-03-07T07:54:14;1.50;99.90
18207;DHT22;9229;52.354;20.886;2024-03-07T07:59:18;1.70;99.90
18207;DHT22;9229;52.354;20.886;2024-03-07T08:04:20;1.80;99.90
18207;DHT22;9229;52.354;20.886;2024-03-07T08:09:22;2.00;99.90
18207;DHT22;9229;52.354;20.886;2024-03-07T08:14:27;2.30;99.90
18207;DHT22;9229;52.354;20.886;2024-03-07T08:19:30;2.50;99.90
18207;DHT22;9229;52.354;20.886;2024-03-07T08:24:32;2.80;99.90
18207;DHT22;9229;52.354;20.886;2024-03-07T08:29:35;3.40;99.90
18207;DHT22;9229;52.354;20.886;2024-03-07T08:34:39;4.50;99.90
18207;DHT22;9229;52.354;20.886;2024-03-07T08:39:41;6.10;99.90
18207;DHT22;9229;52.354;20.886;2024-03-07T08:44:45;7.40;99.90
18207;DHT22;9229;52.354;20.886;2024-03-07T08:49:47;8.50;94.00
18207;DHT22;9229;52.354;20.886;2024-03-07T08:54:53;9.20;87.30
18207;DHT22;9229;52.354;20.886;2024-03-07T09:00:00;9.80;78.90
18207;DHT22;9229;52.354;20.886;2024-03-07T09:05:08;9.70;74.10
18207;DHT22;9229;52.354;20.886;2024-03-07T09:10:12;10.00;69.30
18207;DHT22;9229;52.354;20.886;2024-03-07T09:15:21;10.20;70.10
18207;DHT22;9229;52.354;20.886;2024-03-07T09:20:24;10.50;67.60
18207;DHT22;9229;52.354;20.886;2024-03-07T09:25:28;10.50;65.30
18207;DHT22;9229;52.354;20.886;2024-03-07T09:30:35;10.40;65.80
18207;DHT22;9229;52.354;20.886;2024-03-07T09:35:40;10.80;66.30
18207;DHT22;9229;52.354;20.886;2024-03-07T09:40:42;10.80;64.90
18207;DHT22;9229;52.354;20.886;2024-03-07T09:45:49;10.90;63.70
18207;DHT22;9229;52.354;20.886;2024-03-07T09:50:52;11.30;63.80
18207;DHT22;9229;52.354;20.886;2024-03-07T09:55:59;11.30;61.90
18207;DHT22;9229;52.354;20.886;2024-03-07T10:01:06;11.40;62.20
18207;DHT22;9229;52.354;20.886;2024-03-07T10:06:12;11.80;61.30
18207;DHT22;9229;52.354;20.886;2024-03-07T10:11:15;11.90;59.90
18207;DHT22;9229;52.354;20.886;2024-03-07T10:16:20;11.80;58.40
18207;DHT22;9229;52.354;20.886;2024-03-07T10:21:23;11.70;57.50
18207;DHT22;9229;52.354;20.886;2024-03-07T10:26:26;11.80;57.80
18207;DHT22;9229;52.354;20.886;2024-03-07T10:31:31;11.60;57.20
18207;DHT22;9229;52.354;20.886;2024-03-07T10:36:36;11.20;58.30
18207;DHT22;9229;52.354;20.886;2024-03-07T10:41:45;11.60;60.50
18207;DHT22;9229;52.354;20.886;2024-03-07T10:46:54;12.10;59.00
18207;DHT22;9229;52.354;20.886;2024-03-07T10:52:06;12.20;57.80
18207;DHT22;9229;52.354;20.886;2024-03-07T10:57:19;12.10;57.40
18207;DHT22;9229;52.354;20.886;2024-03-07T11:02:43;12.00;57.90
18207;DHT22;9229;52.354;20.886;2024-03-07T11:13:51;11.90;58.10
18207;DHT22;9229;52.354;20.886;2024-03-07T11:44:31;11.40;58.50
18207;DHT22;9229;52.354;20.886;2024-03-07T11:50:27;11.30;59.10
18207;DHT22;9229;52.354;20.886;2024-03-07T11:56:03;11.30;58.70
18207;DHT22;9229;52.354;20.886;2024-03-07T12:13:48;11.60;59.10
18207;DHT22;9229;52.354;20.886;2024-03-07T12:19:27;11.70;59.30
18207;DHT22;9229;52.354;20.886;2024-03-07T12:31:09;11.90;57.20
18207;DHT22;9229;52.354;20.886;2024-03-07T12:42:41;12.10;56.50
18207;DHT22;9229;52.354;20.886;2024-03-07T12:48:40;12.40;57.10
18207;DHT22;9229;52.354;20.886;2024-03-07T12:53:45;12.60;55.80
18207;DHT22;9229;52.354;20.886;2024-03-07T12:58:47;12.80;55.10
18207;DHT22;9229;52.354;20.886;2024-03-07T13:03:56;13.00;54.60
18207;DHT22;9229;52.354;20.886;2024-03-07T13:08:59;13.10;54.40
18207;DHT22;9229;52.354;20.886;2024-03-07T13:14:01;13.20;53.70
18207;DHT22;9229;52.354;20.886;2024-03-07T13:19:04;13.20;52.50
18207;DHT22;9229;52.354;20.886;2024-03-07T13:24:07;13.10;53.00
18207;DHT22;9229;52.354;20.886;2024-03-07T13:29:10;12.60;52.50
18207;DHT22;9229;52.354;20.886;2024-03-07T13:34:14;12.10;54.00
18207;DHT22;9229;52.354;20.886;2024-03-07T13:39:17;11.70;53.60
18207;DHT22;9229;52.354;20.886;2024-03-07T13:44:19;11.80;55.00
18207;DHT22;9229;52.354;20.886;2024-03-07T13:49:24;11.60;54.10
18207;DHT22;9229;52.354;20.886;2024-03-07T13:54:29;11.00;56.00
18207;DHT22;9229;52.354;20.886;2024-03-07T14:11:11;9.80;60.90
18207;DHT22;9229;52.354;20.886;2024-03-07T14:16:52;9.50;62.30
18207;DHT22;9229;52.354;20.886;2024-03-07T14:22:13;9.30;62.90
18207;DHT22;9229;52.354;20.886;2024-03-07T14:27:31;9.10;63.20
18207;DHT22;9229;52.354;20.886;2024-03-07T14:32:40;8.90;63.30
18207;DHT22;9229;52.354;20.886;2024-03-07T14:37:54;8.70;63.70
18207;DHT22;9229;52.354;20.886;2024-03-07T14:43:01;8.50;62.40
18207;DHT22;9229;52.354;20.886;2024-03-07T14:48:08;8.20;63.70
18207;DHT22;9229;52.354;20.886;2024-03-07T14:53:14;8.00;65.10
18207;DHT22;9229;52.354;20.886;2024-03-07T14:58:18;7.90;65.30
18207;DHT22;9229;52.354;20.886;2024-03-07T15:03:20;7.80;66.20
18207;DHT22;9229;52.354;20.886;2024-03-07T15:08:43;7.70;66.30
18207;DHT22;9229;52.354;20.886;2024-03-07T15:15:43;7.60;66.20
18207;DHT22;9229;52.354;20.886;2024-03-07T15:20:19;7.50;67.30
18207;DHT22;9229;52.354;20.886;2024-03-07T15:26:53;7.30;66.60
18207;DHT22;9229;52.354;20.886;2024-03-07T15:32:34;7.30;67.70
18207;DHT22;9229;52.354;20.886;2024-03-07T15:38:03;6.90;68.60
18207;DHT22;9229;52.354;20.886;2024-03-07T15:43:07;6.70;68.90
18207;DHT22;9229;52.354;20.886;2024-03-07T15:48:17;6.80;69.00
18207;DHT22;9229;52.354;20.886;2024-03-07T15:54:00;6.60;69.80
18207;DHT22;9229;52.354;20.886;2024-03-07T15:59:07;6.40;70.60
18207;DHT22;9229;52.354;20.886;2024-03-07T16:04:11;6.60;70.70
18207;DHT22;9229;52.354;20.886;2024-03-07T16:09:21;6.10;70.00
18207;DHT22;9229;52.354;20.886;2024-03-07T16:21:01;5.70;71.10
18207;DHT22;9229;52.354;20.886;2024-03-07T16:26:59;5.60;72.30
18207;DHT22;9229;52.354;20.886;2024-03-07T16:32:53;5.20;73.00
18207;DHT22;9229;52.354;20.886;2024-03-07T16:38:24;5.10;74.20
18207;DHT22;9229;52.354;20.886;2024-03-07T16:43:49;4.90;75.40
18207;DHT22;9229;52.354;20.886;2024-03-07T16:54:26;4.40;77.70
18207;DHT22;9229;52.354;20.886;2024-03-07T16:59:58;3.90;78.80
18207;DHT22;9229;52.354;20.886;2024-03-07T17:05:43;4.60;80.60
18207;DHT22;9229;52.354;20.886;2024-03-07T17:11:28;3.30;80.50
18207;DHT22;9229;52.354;20.886;2024-03-07T17:17:09;3.50;82.10
18207;DHT22;9229;52.354;20.886;2024-03-07T17:22:20;3.30;83.10
18207;DHT22;9229;52.354;20.886;2024-03-07T17:27:35;3.20;84.70
18207;DHT22;9229;52.354;20.886;2024-03-07T17:32:40;3.00;86.40
18207;DHT22;9229;52.354;20.886;2024-03-07T17:38:03;2.90;88.80
18207;DHT22;9229;52.354;20.886;2024-03-07T17:43:24;2.80;90.30
18207;DHT22;9229;52.354;20.886;2024-03-07T17:48:27;2.60;91.10
18207;DHT22;9229;52.354;20.886;2024-03-07T17:53:36;2.50;92.00
18207;DHT22;9229;52.354;20.886;2024-03-07T17:58:43;2.30;92.60
18207;DHT22;9229;52.354;20.886;2024-03-07T18:03:45;2.20;93.40
18207;DHT22;9229;52.354;20.886;2024-03-07T18:08:47;2.00;94.20
18207;DHT22;9229;52.354;20.886;2024-03-07T18:13:53;1.90;95.20
18207;DHT22;9229;52.354;20.886;2024-03-07T18:19:01;1.80;96.00
18207;DHT22;9229;52.354;20.886;2024-03-07T18:24:10;1.60;97.00
18207;DHT22;9229;52.354;20.886;2024-03-07T18:29:14;1.50;98.20
18207;DHT22;9229;52.354;20.886;2024-03-07T18:34:16;1.40;99.20
18207;DHT22;9229;52.354;20.886;2024-03-07T18:39:23;1.30;99.90
18207;DHT22;9229;52.354;20.886;2024-03-07T18:44:27;1.20;99.90
18207;DHT22;9229;52.354;20.886;2024-03-07T18:49:33;1.10;99.90
18207;DHT22;9229;52.354;20.886;2024-03-07T18:54:35;1.20;99.90
18207;DHT22;9229;52.354;20.886;2024-03-07T18:59:44;1.00;99.90
18207;DHT22;9229;52.354;20.886;2024-03-07T19:04:46;0.90;99.90
18207;DHT22;9229;52.354;20.886;2024-03-07T19:09:48;0.90;99.90
18207;DHT22;9229;52.354;20.886;2024-03-07T19:14:55;0.70;99.90
18207;DHT22;9229;52.354;20.886;2024-03-07T19:19:57;0.50;99.90
18207;DHT22;9229;52.354;20.886;2024-03-07T19:24:59;0.50;99.90
18207;DHT22;9229;52.354;20.886;2024-03-07T19:30:07;0.40;99.90
18207;DHT22;9229;52.354;20.886;2024-03-07T19:35:09;0.30;99.90
18207;DHT22;9229;52.354;20.886;2024-03-07T19:40:15;0.30;99.90
18207;DHT22;9229;52.354;20.886;2024-03-07T19:45:22;0.20;99.90
18207;DHT22;9229;52.354;20.886;2024-03-07T19:50:24;0.10;99.90
18207;DHT22;9229;52.354;20.886;2024-03-07T19:55:27;0.00;99.90
18207;DHT22;9229;52.354;20.886;2024-03-07T20:00:36;0.00;99.90
18207;DHT22;9229;52.354;20.886;2024-03-07T20:05:39;0.00;99.90
18207;DHT22;9229;52.354;20.886;2024-03-07T20:10:43;-0.10;99.90
18207;DHT22;9229;52.354;20.886;2024-03-07T20:15:51;-0.20;99.90
18207;DHT22;9229;52.354;20.886;2024-03-07T20:20:54;-0.20;99.90
18207;DHT22;9229;52.354;20.886;2024-03-07T20:25:58;-0.30;99.90
18207;DHT22;9229;52.354;20.886;2024-03-07T20:31:04;-0.40;99.90
18207;DHT22;9229;52.354;20.886;2024-03-07T20:36:09;-0.50;99.90
18207;DHT22;9229;52.354;20.886;2024-03-07T20:41:17;-0.50;99.90
18207;DHT22;9229;52.354;20.886;2024-03-07T20:46:20;-0.60;99.90
18207;DHT22;9229;52.354;20.886;2024-03-07T20:51:27;-0.60;99.90
18207;DHT22;9229;52.354;20.886;2024-03-07T20:56:33;-0.70;99.90
18207;DHT22;9229;52.354;20.886;2024-03-07T21:01:38;-0.70;99.90
18207;DHT22;9229;52.354;20.886;2024-03-07T21:06:44;-0.80;99.90
18207;DHT22;9229;52.354;20.886;2024-03-07T21:11:46;-0.80;99.90
18207;DHT22;9229;52.354;20.886;2024-03-07T21:16:51;-0.90;99.90
18207;DHT22;9229;52.354;20.886;2024-03-07T21:21:53;-0.90;99.90
18207;DHT22;9229;52.354;20.886;2024-03-07T21:26:57;-1.10;99.90
18207;DHT22;9229;52.354;20.886;2024-03-07T21:32:03;-1.00;99.90
18207;DHT22;9229;52.354;20.886;2024-03-07T21:37:08;-1.10;99.90
18207;DHT22;9229;52.354;20.886;2024-03-07T21:42:11;-1.10;99.90
18207;DHT22;9229;52.354;20.886;2024-03-07T21:47:15;-1.10;99.90
18207;DHT22;9229;52.354;20.886;2024-03-07T21:52:25;-1.20;99.90
18207;DHT22;9229;52.354;20.886;2024-03-07T21:57:28;-1.20;99.90
18207;DHT22;9229;52.354;20.886;2024-03-07T22:02:31;-1.30;99.90
18207;DHT22;9229;52.354;20.886;2024-03-07T22:07:33;-1.30;99.90
18207;DHT22;9229;52.354;20.886;2024-03-07T22:12:38;-1.40;99.90
18207;DHT22;9229;52.354;20.886;2024-03-07T22:17:42;-1.40;99.90
18207;DHT22;9229;52.354;20.886;2024-03-07T22:22:45;-1.50;99.90
18207;DHT22;9229;52.354;20.886;2024-03-07T22:27:48;-1.50;99.90
18207;DHT22;9229;52.354;20.886;2024-03-07T22:33:03;-1.60;99.90
18207;DHT22;9229;52.354;20.886;2024-03-07T22:38:06;-1.60;99.90
18207;DHT22;9229;52.354;20.886;2024-03-07T22:43:13;-1.60;99.90
18207;DHT22;9229;52.354;20.886;2024-03-07T22:48:17;-1.60;99.90
18207;DHT22;9229;52.354;20.886;2024-03-07T22:53:19;-1.70;99.90
18207;DHT22;9229;52.354;20.886;2024-03-07T22:58:22;-1.80;99.90
18207;DHT22;9229;52.354;20.886;2024-03-07T23:03:29;-1.80;99.90
18207;DHT22;9229;52.354;20.886;2024-03-07T23:08:32;-1.90;99.90
18207;DHT22;9229;52.354;20.886;2024-03-07T23:13:35;-1.90;99.90
18207;DHT22;9229;52.354;20.886;2024-03-07T23:18:39;-1.90;99.90
18207;DHT22;9229;52.354;20.886;2024-03-07T23:23:42;-2.00;99.90
18207;DHT22;9229;52.354;20.886;2024-03-07T23:28:46;-2.00;99.90
18207;DHT22;9229;52.354;20.886;2024-03-07T23:33:51;-2.00;99.90
18207;DHT22;9229;52.354;20.886;2024-03-07T23:38:58;-2.00;99.90
18207;DHT22;9229;52.354;20.886;2024-03-07T23:44:03;-2.00;99.90
18207;DHT22;9229;52.354;20.886;2024-03-07T23:49:06;-2.10;99.90
18207;DHT22;9229;52.354;20.886;2024-03-07T23:54:08;-2.10;99.90
18207;DHT22;9229;52.354;20.886;2024-03-07T23:59:12;-2.10;99.90
